createdAt,value
2022-12-15T00:02:26.800Z,94064.09
2022-12-15T00:05:12.817Z,94140.91
2022-12-15T00:07:58.709Z,94050.22
2022-12-15T00:10:44.361Z,94074.06
2022-12-15T00:13:32.016Z,94147.28
2022-12-15T00:16:19.077Z,94149.25
2022-12-15T00:19:04.800Z,94170.63
2022-12-15T00:21:53.284Z,94182.84
2022-12-15T00:24:39.433Z,94182.03
2022-12-15T00:27:25.731Z,94037.88
2022-12-15T00:30:11.334Z,94229.78
2022-12-15T00:32:56.944Z,94202.78
2022-12-15T00:35:43.446Z,94219.97
2022-12-15T00:38:32.681Z,94207.84
2022-12-15T00:41:00.402Z,94215.88
2022-12-15T00:43:29.832Z,94198.16
2022-12-15T00:46:15.841Z,94192.75
2022-12-15T00:48:43.729Z,94130.56
2022-12-15T00:51:11.770Z,94173.78
2022-12-15T00:53:57.260Z,94167.84
2022-12-15T00:56:43.845Z,94125.22
2022-12-15T00:59:30.484Z,94145.81
2022-12-15T01:02:16.605Z,94128.09
2022-12-15T01:05:02.284Z,94151.22
2022-12-15T01:07:49.583Z,94128.47
2022-12-15T01:10:37.237Z,93981.34
2022-12-15T01:13:23.413Z,94124.00
2022-12-15T01:16:08.964Z,94126.19
2022-12-15T01:18:54.866Z,94105.59
2022-12-15T01:21:25.034Z,94121.25
2022-12-15T01:23:53.374Z,94068.19
2022-12-15T01:26:20.579Z,94110.72
2022-12-15T01:28:47.585Z,94113.34
2022-12-15T01:31:14.894Z,94106.84
2022-12-15T01:33:43.680Z,94126.91
2022-12-15T01:36:11.770Z,94142.94
2022-12-15T01:38:39.099Z,94120.84
2022-12-15T01:41:10.104Z,94157.31
2022-12-15T01:43:39.426Z,94133.00
2022-12-15T01:46:11.150Z,94112.91
2022-12-15T01:48:54.720Z,94139.88
2022-12-15T01:51:30.739Z,94126.09
2022-12-15T01:54:01.603Z,94096.88
2022-12-15T01:56:37.364Z,94113.94
2022-12-15T01:59:09.245Z,94094.66
2022-12-15T02:01:36.692Z,94081.25
2022-12-15T02:04:04.344Z,94070.13
2022-12-15T02:06:31.319Z,94059.44
2022-12-15T02:09:00.755Z,94068.31
2022-12-15T02:11:36.810Z,94070.22
2022-12-15T02:14:06.724Z,94101.78
2022-12-15T02:16:39.737Z,94079.06
2022-12-15T02:19:42.042Z,94060.72
2022-12-15T02:22:32.218Z,94045.31
2022-12-15T02:25:40.633Z,94053.25
2022-12-15T02:28:25.563Z,94043.38
2022-12-15T02:31:22.769Z,94008.97
2022-12-15T02:33:55.048Z,94042.06
2022-12-15T02:36:38.918Z,94055.25
2022-12-15T02:39:06.333Z,94062.47
2022-12-15T02:41:39.070Z,94031.56
2022-12-15T02:44:22.682Z,94047.56
2022-12-15T02:47:01.726Z,94060.66
2022-12-15T02:50:23.920Z,94065.22
2022-12-15T02:53:08.289Z,94100.22
2022-12-15T02:55:41.292Z,94103.97
2022-12-15T02:58:39.610Z,94098.47
2022-12-15T03:01:26.374Z,94079.44
2022-12-15T03:03:55.946Z,94057.81
2022-12-15T03:06:25.217Z,94085.63
2022-12-15T03:08:52.393Z,94110.91
2022-12-15T03:11:19.247Z,94033.75
2022-12-15T03:13:46.824Z,94039.25
2022-12-15T03:16:17.225Z,94048.63
2022-12-15T03:18:44.197Z,94080.81
2022-12-15T03:21:11.261Z,94073.41
2022-12-15T03:23:38.627Z,94076.69
2022-12-15T03:26:06.761Z,94083.81
2022-12-15T03:28:34.084Z,94065.28
2022-12-15T03:31:01.073Z,94081.47
2022-12-15T03:33:28.459Z,94059.91
2022-12-15T03:35:56.335Z,94067.63
2022-12-15T03:38:23.375Z,94043.44
2022-12-15T03:40:50.416Z,94081.41
2022-12-15T03:43:17.417Z,94059.09
2022-12-15T03:45:44.846Z,94040.13
2022-12-15T03:48:12.112Z,94067.94
2022-12-15T03:50:39.079Z,94107.63
2022-12-15T03:53:06.301Z,94056.63
2022-12-15T03:55:35.235Z,94102.38
2022-12-15T03:58:02.874Z,94110.00
2022-12-15T04:00:30.244Z,94111.84
2022-12-15T04:02:57.535Z,94098.59
2022-12-15T04:05:33.199Z,94129.34
2022-12-15T04:08:01.945Z,94133.78
2022-12-15T04:10:34.383Z,94124.06
2022-12-15T04:13:11.297Z,94132.56
2022-12-15T04:15:40.132Z,94145.00
2022-12-15T04:18:14.056Z,94148.81
2022-12-15T04:20:41.421Z,94126.19
2022-12-15T04:23:08.757Z,94111.03
2022-12-15T04:25:55.522Z,94099.31
2022-12-15T04:28:43.771Z,94107.22
2022-12-15T04:31:33.878Z,94132.66
2022-12-15T04:34:22.704Z,94116.41
2022-12-15T04:37:11.378Z,94125.97
2022-12-15T04:40:04.841Z,94109.13
2022-12-15T04:42:52.261Z,94080.91
2022-12-15T04:45:40.107Z,94123.97
2022-12-15T04:48:25.763Z,94107.91
2022-12-15T04:51:11.427Z,94107.53
2022-12-15T04:53:56.935Z,94102.28
2022-12-15T04:56:42.369Z,94120.31
2022-12-15T04:59:27.906Z,94134.03
2022-12-15T05:02:13.785Z,94144.94
2022-12-15T05:04:59.519Z,94165.69
2022-12-15T05:07:45.814Z,94168.13
2022-12-15T05:10:31.592Z,94136.06
2022-12-15T05:13:28.491Z,94153.91
2022-12-15T05:16:15.397Z,94175.44
2022-12-15T05:19:01.140Z,94186.50
2022-12-15T05:21:47.026Z,94201.19
2022-12-15T05:24:34.859Z,94207.97
2022-12-15T05:27:20.410Z,94208.94
2022-12-15T05:30:06.001Z,94184.34
2022-12-15T05:32:33.462Z,94216.88
2022-12-15T05:35:01.518Z,94237.75
2022-12-15T05:37:30.348Z,94252.69
2022-12-15T05:39:57.403Z,94205.59
2022-12-15T05:42:24.356Z,94232.91
2022-12-15T05:44:51.422Z,94257.38
2022-12-15T05:47:18.652Z,94188.66
2022-12-15T05:49:45.599Z,94173.03
2022-12-15T05:52:12.789Z,94224.19
2022-12-15T05:54:39.783Z,94322.03
2022-12-15T05:57:06.929Z,94273.03
2022-12-15T05:59:34.068Z,94298.94
2022-12-15T06:02:01.192Z,94247.00
2022-12-15T06:04:28.653Z,94273.31
2022-12-15T06:07:14.627Z,94321.34
2022-12-15T06:09:41.616Z,94337.94
2022-12-15T06:12:08.501Z,94343.47
2022-12-15T06:14:36.741Z,94340.56
2022-12-15T06:17:04.490Z,94343.44
2022-12-15T06:19:31.860Z,94304.22
2022-12-15T06:21:58.910Z,94323.00
2022-12-15T06:24:26.153Z,94330.06
2022-12-15T06:26:53.366Z,94349.78
2022-12-15T06:29:20.420Z,94357.25
2022-12-15T06:31:48.016Z,94337.94
2022-12-15T06:34:17.023Z,94336.06
2022-12-15T06:36:44.565Z,94333.81
2022-12-15T06:39:13.978Z,94324.00
2022-12-15T06:41:42.219Z,94348.41
2022-12-15T06:44:13.439Z,94380.84
2022-12-15T06:46:40.428Z,94275.09
2022-12-15T06:49:09.083Z,94383.72
2022-12-15T06:51:36.675Z,94377.31
2022-12-15T06:54:03.723Z,94379.81
2022-12-15T06:56:34.580Z,94387.09
2022-12-15T06:59:03.960Z,94363.41
2022-12-15T07:01:31.870Z,94245.28
2022-12-15T07:04:03.232Z,94387.44
2022-12-15T07:06:37.613Z,94371.06
2022-12-15T07:09:08.565Z,94374.31
2022-12-15T07:11:36.184Z,94406.88
2022-12-15T07:14:03.409Z,94399.06
2022-12-15T07:16:31.096Z,94419.81
2022-12-15T07:18:58.896Z,94406.72
2022-12-15T07:21:26.329Z,94424.34
2022-12-15T07:23:55.921Z,94428.28
2022-12-15T07:26:24.682Z,94416.53
2022-12-15T07:28:54.222Z,94440.72
2022-12-15T07:31:23.131Z,94408.16
2022-12-15T07:33:52.908Z,94427.16
2022-12-15T07:36:20.509Z,94335.00
2022-12-15T07:38:50.323Z,94350.47
2022-12-15T07:41:19.532Z,94420.16
2022-12-15T07:43:48.043Z,94424.78
2022-12-15T07:46:15.891Z,94450.28
2022-12-15T07:48:43.095Z,94448.91
2022-12-15T07:51:18.793Z,94446.84
2022-12-15T07:53:49.646Z,94468.16
2022-12-15T07:56:19.185Z,94380.63
2022-12-15T07:58:46.658Z,94478.78
2022-12-15T08:01:15.565Z,94335.56
2022-12-15T08:03:42.928Z,94482.47
2022-12-15T08:06:13.329Z,94485.56
2022-12-15T08:08:41.039Z,94469.00
2022-12-15T08:11:10.644Z,94484.09
2022-12-15T08:14:01.872Z,94460.94
2022-12-15T08:16:26.160Z,94444.97
2022-12-15T08:18:53.941Z,94489.00
2022-12-15T08:21:21.202Z,94447.16
2022-12-15T08:23:51.170Z,94466.28
2022-12-15T08:26:19.559Z,94502.97
2022-12-15T08:28:47.237Z,94440.72
2022-12-15T08:31:17.582Z,94503.44
2022-12-15T08:33:45.621Z,94497.91
2022-12-15T08:36:14.466Z,94479.34
2022-12-15T08:38:43.181Z,94508.16
2022-12-15T08:41:11.745Z,94507.00
2022-12-15T08:43:45.800Z,94501.03
2022-12-15T08:46:16.056Z,94519.22
2022-12-15T08:48:43.337Z,94521.41
2022-12-15T08:51:10.724Z,94482.22
2022-12-15T08:53:38.913Z,94524.63
2022-12-15T08:56:09.020Z,94530.16
2022-12-15T08:58:36.417Z,94459.31
2022-12-15T09:01:09.131Z,94501.81
2022-12-15T09:03:37.136Z,94527.34
2022-12-15T09:06:11.789Z,94506.97
2022-12-15T09:08:39.061Z,94526.91
2022-12-15T09:11:06.405Z,94502.00
2022-12-15T09:13:33.974Z,94450.09
2022-12-15T09:16:13.354Z,94489.00
2022-12-15T09:18:46.145Z,94494.19
2022-12-15T09:21:15.011Z,94502.59
2022-12-15T09:23:43.281Z,94485.41
2022-12-15T09:26:15.294Z,94529.03
2022-12-15T09:28:43.311Z,94355.75
2022-12-15T09:31:15.431Z,94521.34
2022-12-15T09:33:43.908Z,94520.41
2022-12-15T09:36:13.320Z,94498.25
2022-12-15T09:38:41.432Z,94529.25
2022-12-15T09:41:13.684Z,94479.63
2022-12-15T09:44:05.425Z,94505.50
2022-12-15T09:47:11.523Z,94519.25
2022-12-15T09:49:51.378Z,94533.19
2022-12-15T09:52:23.764Z,94517.88
2022-12-15T09:54:51.551Z,94504.28
2022-12-15T09:57:26.251Z,94536.03
2022-12-15T10:00:21.004Z,94540.41
2022-12-15T10:02:54.176Z,94534.28
2022-12-15T10:06:07.046Z,94493.03
2022-12-15T10:08:31.088Z,94464.78
2022-12-15T10:11:16.215Z,94486.06
2022-12-15T10:14:27.331Z,94440.00
2022-12-15T10:17:25.373Z,94521.44
2022-12-15T10:20:02.504Z,94521.84
2022-12-15T10:22:39.140Z,94525.09
2022-12-15T10:25:27.459Z,94530.25
2022-12-15T10:28:24.963Z,94540.34
2022-12-15T10:31:05.383Z,94540.66
2022-12-15T10:33:39.700Z,94531.56
2022-12-15T10:36:15.445Z,94539.38
2022-12-15T10:38:50.537Z,94437.38
2022-12-15T10:41:22.360Z,94545.75
2022-12-15T10:43:54.664Z,94526.16
2022-12-15T10:46:28.015Z,94542.66
2022-12-15T10:49:07.512Z,94542.09
2022-12-15T10:51:44.240Z,94496.59
2022-12-15T10:54:14.146Z,94543.22
2022-12-15T10:56:59.101Z,94475.69
2022-12-15T10:59:31.999Z,94529.13
2022-12-15T11:02:23.016Z,94541.59
2022-12-15T11:04:58.354Z,94551.91
2022-12-15T11:07:53.581Z,94545.66
2022-12-15T11:10:50.046Z,94534.34
2022-12-15T11:13:22.646Z,94474.41
2022-12-15T11:15:55.088Z,94538.63
2022-12-15T11:18:46.322Z,94507.25
2022-12-15T11:21:30.765Z,94532.81
2022-12-15T11:24:38.928Z,94536.28
2022-12-15T11:27:14.327Z,94526.31
2022-12-15T11:30:02.936Z,94540.06
2022-12-15T11:32:35.345Z,94518.13
2022-12-15T11:35:02.915Z,94552.63
2022-12-15T11:37:44.423Z,94540.50
2022-12-15T11:40:21.533Z,94524.03
2022-12-15T11:42:54.852Z,94548.53
2022-12-15T11:45:35.548Z,94501.06
2022-12-15T11:48:13.833Z,94529.41
2022-12-15T11:51:05.880Z,94492.66
2022-12-15T11:54:17.247Z,94554.06
2022-12-15T11:57:02.358Z,94528.50
2022-12-15T11:59:56.968Z,94551.78
2022-12-15T12:02:48.652Z,94540.47
2022-12-15T12:05:40.429Z,94564.66
2022-12-15T12:08:26.032Z,94572.00
2022-12-15T12:10:59.055Z,94573.09
2022-12-15T12:13:40.654Z,94502.28
2022-12-15T12:16:32.773Z,94574.72
2022-12-15T12:19:10.073Z,94567.25
2022-12-15T12:21:41.084Z,94571.31
2022-12-15T12:24:25.066Z,94557.09
2022-12-15T12:27:34.025Z,94578.03
2022-12-15T12:30:06.923Z,94456.47
2022-12-15T12:32:43.788Z,94533.53
2022-12-15T12:35:33.504Z,94593.00
2022-12-15T12:38:03.857Z,94594.63
2022-12-15T12:40:40.907Z,94598.00
2022-12-15T12:43:14.089Z,94600.28
2022-12-15T12:45:54.316Z,94597.81
2022-12-15T12:49:00.356Z,94610.13
2022-12-15T12:51:36.866Z,94591.69
2022-12-15T12:54:33.930Z,94602.06
2022-12-15T12:57:02.512Z,94561.38
2022-12-15T12:59:29.372Z,94605.78
2022-12-15T13:01:58.554Z,94612.25
2022-12-15T13:04:28.672Z,94625.53
2022-12-15T13:06:55.439Z,94610.06
2022-12-15T13:09:25.314Z,94594.41
2022-12-15T13:11:52.316Z,94621.50
2022-12-15T13:14:46.672Z,94616.47
2022-12-15T13:17:32.649Z,94610.13
2022-12-15T13:20:02.776Z,94625.53
2022-12-15T13:22:36.535Z,94628.97
2022-12-15T13:25:41.927Z,94467.81
2022-12-15T13:28:28.263Z,94638.34
2022-12-15T13:31:27.717Z,94593.69
2022-12-15T13:34:12.968Z,94631.72
2022-12-15T13:36:39.952Z,94631.91
2022-12-15T13:39:13.246Z,94629.25
2022-12-15T13:42:07.472Z,94635.91
2022-12-15T13:44:38.161Z,94639.38
2022-12-15T13:47:16.607Z,94628.25
2022-12-15T13:50:01.377Z,94634.88
2022-12-15T13:55:51.563Z,94635.81
2022-12-15T13:58:21.382Z,94647.28
2022-12-15T14:00:52.029Z,94471.09
2022-12-15T14:03:19.047Z,94536.59
2022-12-15T14:05:52.369Z,94439.59
2022-12-15T14:08:22.072Z,94491.19
2022-12-15T14:11:50.907Z,94502.13
2022-12-15T14:14:23.512Z,94675.63
2022-12-15T14:16:58.844Z,94651.44
2022-12-15T14:19:27.502Z,94663.56
2022-12-15T14:21:59.482Z,94676.44
2022-12-15T14:27:29.588Z,94671.75
2022-12-15T14:30:12.786Z,94690.22
2022-12-15T14:32:42.743Z,94640.91
2022-12-15T14:35:26.238Z,94496.56
2022-12-15T14:37:55.928Z,94584.81
2022-12-15T14:40:28.379Z,94705.50
2022-12-15T14:42:56.962Z,94700.34
2022-12-15T14:45:27.513Z,94713.06
2022-12-15T14:48:30.408Z,94627.88
2022-12-15T14:50:47.889Z,94724.97
2022-12-15T14:53:17.933Z,94602.53
2022-12-15T14:55:45.591Z,94707.22
2022-12-15T14:58:29.732Z,94732.16
2022-12-15T15:00:57.549Z,94702.63
2022-12-15T15:03:10.518Z,94654.91
2022-12-15T15:03:35.362Z,94679.13
2022-12-15T15:06:12.130Z,94729.09
2022-12-15T15:08:50.908Z,94706.50
2022-12-15T15:11:21.222Z,94732.78
2022-12-15T15:13:48.475Z,94720.34
2022-12-15T15:16:17.482Z,94728.06
2022-12-15T15:18:49.361Z,94753.44
2022-12-15T15:21:26.462Z,94748.59
2022-12-15T15:24:00.011Z,94751.75
2022-12-15T15:26:28.546Z,94740.53
2022-12-15T15:28:55.951Z,94758.53
2022-12-15T15:31:23.045Z,94756.56
2022-12-15T15:33:50.833Z,94750.91
2022-12-15T15:36:17.919Z,94719.50
2022-12-15T15:38:46.882Z,94764.84
2022-12-15T15:41:18.112Z,94759.31
2022-12-15T15:43:46.112Z,94782.72
2022-12-15T15:46:22.227Z,94728.66
2022-12-15T15:48:50.638Z,94778.41
2022-12-15T15:51:18.624Z,94736.25
2022-12-15T15:53:46.872Z,94775.75
2022-12-15T15:56:16.693Z,94762.59
2022-12-15T15:58:44.484Z,94763.28
2022-12-15T16:01:13.637Z,94704.41
2022-12-15T16:03:41.443Z,94784.84
2022-12-15T16:06:17.382Z,94785.38
2022-12-15T16:08:45.583Z,94771.28
2022-12-15T16:11:12.874Z,94767.00
2022-12-15T16:13:40.083Z,94783.53
2022-12-15T16:16:15.230Z,94793.78
2022-12-15T16:18:42.848Z,94743.88
2022-12-15T16:21:14.159Z,94742.84
2022-12-15T16:23:44.128Z,94746.09
2022-12-15T16:26:17.049Z,94791.13
2022-12-15T16:28:44.358Z,94797.47
2022-12-15T16:31:24.715Z,94798.28
2022-12-15T16:33:52.142Z,94769.25
2022-12-15T16:36:19.244Z,94815.91
2022-12-15T16:38:46.316Z,94793.03
2022-12-15T16:41:17.235Z,94805.03
2022-12-15T16:43:48.251Z,94781.09
2022-12-15T16:46:16.157Z,94824.75
2022-12-15T16:48:45.649Z,94768.94
2022-12-15T16:51:48.200Z,94827.75
2022-12-15T16:54:27.035Z,94785.19
2022-12-15T16:56:56.996Z,94816.09
2022-12-15T16:59:36.274Z,94826.59
2022-12-15T17:02:19.922Z,94838.81
2022-12-15T17:04:47.460Z,94825.94
2022-12-15T17:07:20.012Z,94841.78
2022-12-15T17:09:50.074Z,94831.25
2022-12-15T17:12:18.113Z,94850.09
2022-12-15T17:14:46.044Z,94756.84
2022-12-15T17:17:18.723Z,94775.84
2022-12-15T17:20:19.947Z,94846.34
2022-12-15T17:22:36.267Z,94842.88
2022-12-15T17:25:03.316Z,94854.97
2022-12-15T17:27:31.666Z,94825.88
2022-12-15T17:30:00.870Z,94865.41
2022-12-15T17:32:28.092Z,94869.69
2022-12-15T17:34:55.105Z,94791.78
2022-12-15T17:37:26.186Z,94816.56
2022-12-15T17:39:56.558Z,94876.16
2022-12-15T17:42:23.609Z,94870.25
2022-12-15T17:44:51.869Z,94863.22
2022-12-15T17:47:19.167Z,94845.59
2022-12-15T17:49:47.382Z,94841.31
2022-12-15T17:52:35.053Z,94753.22
2022-12-15T17:55:04.413Z,94857.97
2022-12-15T17:57:32.271Z,94867.91
2022-12-15T18:00:02.815Z,94863.31
2022-12-15T18:02:33.100Z,94879.81
2022-12-15T18:05:00.252Z,94871.22
2022-12-15T18:07:28.118Z,94873.44
2022-12-15T18:09:55.537Z,94758.94
2022-12-15T18:12:27.953Z,94870.34
2022-12-15T18:14:56.980Z,94855.97
2022-12-15T18:17:24.501Z,94832.63
2022-12-15T18:19:51.743Z,94824.00
2022-12-15T18:22:24.101Z,94863.88
2022-12-15T18:24:53.495Z,94835.47
2022-12-15T18:27:29.614Z,94859.00
2022-12-15T18:29:57.191Z,94859.81
2022-12-15T18:32:26.688Z,94838.56
2022-12-15T18:34:54.864Z,94805.81
2022-12-15T18:37:24.862Z,94819.59
2022-12-15T18:39:52.708Z,94862.88
2022-12-15T18:42:21.597Z,94865.59
2022-12-15T18:44:53.601Z,94854.78
2022-12-15T18:47:23.506Z,94865.00
2022-12-15T18:49:51.786Z,94832.50
2022-12-15T18:52:24.494Z,94866.13
2022-12-15T18:54:54.213Z,94883.00
2022-12-15T18:57:30.847Z,94813.34
2022-12-15T19:00:17.416Z,94876.13
2022-12-15T19:02:44.507Z,94857.28
2022-12-15T19:05:27.711Z,94870.84
2022-12-15T19:08:00.814Z,94843.06
2022-12-15T19:10:30.351Z,94859.50
2022-12-15T19:12:58.805Z,94864.31
2022-12-15T19:15:26.149Z,94854.81
2022-12-15T19:18:11.816Z,94814.00
2022-12-15T19:20:59.459Z,94831.44
2022-12-15T19:23:26.546Z,94813.84
2022-12-15T19:25:54.587Z,94839.94
2022-12-15T19:28:23.439Z,94878.03
2022-12-15T19:30:52.225Z,94872.38
2022-12-15T19:33:20.084Z,94886.84
2022-12-15T19:35:51.145Z,94817.34
2022-12-15T19:38:25.654Z,94889.69
2022-12-15T19:40:54.640Z,94870.00
2022-12-15T19:43:24.205Z,94893.16
2022-12-15T19:45:52.239Z,94890.56
2022-12-15T19:48:23.340Z,94857.50
2022-12-15T19:50:52.185Z,94850.00
2022-12-15T19:53:25.921Z,94885.50
2022-12-15T19:55:55.591Z,94848.00
2022-12-15T19:58:33.071Z,94904.13
2022-12-15T20:01:06.966Z,94870.53
2022-12-15T20:03:34.962Z,94839.69
2022-12-15T20:06:03.879Z,94912.06
2022-12-15T20:08:36.923Z,94911.84
2022-12-15T20:11:05.177Z,94904.94
2022-12-15T20:13:32.656Z,94921.06
2022-12-15T20:15:59.849Z,94914.59
2022-12-15T20:18:27.071Z,94911.75
2022-12-15T20:20:54.312Z,94883.69
2022-12-15T20:23:29.534Z,94902.28
2022-12-15T20:25:57.329Z,94861.06
2022-12-15T20:28:29.927Z,94920.72
2022-12-15T20:30:57.428Z,94889.41
2022-12-15T20:33:24.917Z,94879.31
2022-12-15T20:35:52.787Z,94906.25
2022-12-15T20:38:25.383Z,94871.00
2022-12-15T20:40:53.090Z,94889.81
2022-12-15T20:43:22.350Z,94895.06
2022-12-15T20:45:56.406Z,94887.72
2022-12-15T20:48:25.692Z,94883.06
2022-12-15T20:50:53.439Z,94833.22
2022-12-15T20:53:24.263Z,94834.34
2022-12-15T20:55:53.296Z,94653.31
2022-12-15T20:58:21.302Z,94860.50
2022-12-15T21:00:51.755Z,94858.47
2022-12-15T21:03:30.314Z,94838.97
2022-12-15T21:05:58.859Z,94834.97
2022-12-15T21:08:29.692Z,94908.28
2022-12-15T21:11:02.767Z,94871.44
2022-12-15T21:13:33.047Z,94894.06
2022-12-15T21:16:00.736Z,94890.00
2022-12-15T21:21:20.942Z,94891.44
2022-12-15T21:23:49.009Z,94876.66
2022-12-15T21:26:22.084Z,94856.22
2022-12-15T21:28:50.342Z,94903.50
2022-12-15T21:31:19.101Z,94909.59
2022-12-15T21:33:46.716Z,94897.59
2022-12-15T21:36:15.726Z,94921.09
2022-12-15T21:38:46.643Z,94881.72
2022-12-15T21:41:16.791Z,94891.44
2022-12-15T21:43:43.888Z,94882.84
2022-12-15T21:46:31.137Z,94880.72
2022-12-15T21:49:18.648Z,94898.41
2022-12-15T21:51:57.599Z,94900.25
2022-12-15T21:54:30.928Z,94889.78
2022-12-15T21:56:59.742Z,94861.53
2022-12-15T21:59:29.608Z,94898.56
2022-12-15T22:01:59.274Z,94878.25
2022-12-15T22:04:34.959Z,94872.50
2022-12-15T22:07:02.584Z,94800.44
2022-12-15T22:09:29.529Z,94823.16
2022-12-15T22:11:57.083Z,94883.09
2022-12-15T22:14:28.195Z,94881.63
2022-12-15T22:16:55.771Z,94883.25
2022-12-15T22:19:23.614Z,94888.88
2022-12-15T22:21:51.135Z,94884.41
2022-12-15T22:24:20.927Z,94860.47
2022-12-15T22:26:48.047Z,94875.06
2022-12-15T22:29:18.855Z,94887.22
2022-12-15T22:31:46.949Z,94860.44
2022-12-15T22:34:19.621Z,94843.19
2022-12-15T22:36:46.786Z,94861.06
2022-12-15T22:39:15.024Z,94821.00
2022-12-15T22:41:47.846Z,94846.63
2022-12-15T22:44:27.704Z,94845.25
2022-12-15T22:46:56.986Z,94833.25
2022-12-15T22:49:30.557Z,94851.47
2022-12-15T22:51:58.172Z,94824.75
2022-12-15T22:54:27.654Z,94852.50
2022-12-15T22:57:05.545Z,94846.97
2022-12-15T22:59:36.196Z,94846.00
2022-12-15T23:02:03.715Z,94849.38
2022-12-15T23:04:32.264Z,94840.75
2022-12-15T23:07:05.103Z,94850.31
2022-12-15T23:09:32.169Z,94842.56
2022-12-15T23:12:01.924Z,94836.56
2022-12-15T23:14:47.766Z,94850.09
2022-12-15T23:17:14.978Z,94829.44
2022-12-15T23:19:46.130Z,94825.97
2022-12-15T23:22:13.946Z,94858.75
2022-12-15T23:24:41.096Z,94857.53
2022-12-15T23:27:11.930Z,94861.81
2022-12-15T23:29:47.979Z,94854.97
2022-12-15T23:32:15.273Z,94853.66
2022-12-15T23:34:42.478Z,94844.78
2022-12-15T23:37:09.888Z,94844.06
2022-12-15T23:39:37.055Z,94860.13
2022-12-15T23:42:05.674Z,94825.09
2022-12-15T23:44:32.621Z,94862.41
2022-12-15T23:46:59.942Z,94852.72
2022-12-15T23:49:27.014Z,94872.38
2022-12-15T23:51:54.068Z,94858.09
2022-12-15T23:54:22.376Z,94843.56
2022-12-15T23:56:49.429Z,94848.66
2022-12-15T23:59:18.697Z,94844.06
